createdAt,value
2022-11-20T00:00:57.502Z,14.10
2022-11-20T00:03:25.908Z,14.77
2022-11-20T00:05:54.136Z,14.57
2022-11-20T00:08:22.436Z,15.05
2022-11-20T00:10:50.805Z,15.15
2022-11-20T00:13:19.116Z,14.57
2022-11-20T00:15:49.007Z,14.15
2022-11-20T00:18:17.241Z,12.40
2022-11-20T00:20:45.515Z,13.80
2022-11-20T00:23:13.727Z,13.85
2022-11-20T00:25:42.035Z,13.07
2022-11-20T00:28:10.281Z,13.68
2022-11-20T00:30:38.609Z,14.52
2022-11-20T00:33:08.234Z,13.48
2022-11-20T00:35:36.465Z,15.25
2022-11-20T00:38:04.671Z,14.13
2022-11-20T00:40:32.961Z,12.70
2022-11-20T00:43:01.200Z,15.55
2022-11-20T00:45:29.443Z,15.55
2022-11-20T00:47:57.716Z,13.80
2022-11-20T00:50:27.319Z,14.20
2022-11-20T00:52:55.612Z,12.95
2022-11-20T00:55:23.891Z,13.80
2022-11-20T00:57:52.183Z,15.52
2022-11-20T01:00:20.605Z,13.77
2022-11-20T01:02:48.864Z,15.05
2022-11-20T01:05:17.107Z,12.50
2022-11-20T01:07:46.771Z,14.13
2022-11-20T01:10:15.123Z,13.80
2022-11-20T01:12:43.378Z,13.68
2022-11-20T01:15:11.930Z,13.73
2022-11-20T01:17:40.222Z,14.02
2022-11-20T01:20:09.244Z,12.75
2022-11-20T01:22:37.511Z,14.50
2022-11-20T01:25:07.749Z,13.73
2022-11-20T01:27:35.973Z,14.75
2022-11-20T01:30:04.232Z,14.63
2022-11-20T01:32:32.498Z,15.38
2022-11-20T01:35:00.781Z,14.90
2022-11-20T01:37:28.989Z,14.00
2022-11-20T01:39:57.231Z,13.43
2022-11-20T01:42:44.724Z,13.65
2022-11-20T01:45:31.530Z,14.23
2022-11-20T01:47:59.805Z,12.38
2022-11-20T01:50:29.806Z,14.18
2022-11-20T01:52:59.925Z,12.63
2022-11-20T01:55:31.325Z,13.87
2022-11-20T01:58:01.571Z,15.90
2022-11-20T02:00:29.784Z,12.93
2022-11-20T02:03:00.062Z,13.23
2022-11-20T02:05:31.308Z,14.23
2022-11-20T02:08:00.627Z,13.90
2022-11-20T02:10:29.876Z,14.70
2022-11-20T02:13:15.899Z,12.38
2022-11-20T02:15:45.905Z,14.95
2022-11-20T02:18:14.678Z,13.02
2022-11-20T02:20:44.079Z,13.48
2022-11-20T02:23:15.028Z,16.97
2022-11-20T02:25:45.094Z,14.47
2022-11-20T02:28:13.400Z,15.95
2022-11-20T02:30:41.712Z,15.35
2022-11-20T02:33:09.959Z,13.65
2022-11-20T02:35:45.700Z,15.02
2022-11-20T02:38:14.439Z,13.48
2022-11-20T02:40:42.712Z,15.10
2022-11-20T02:43:12.904Z,14.52
2022-11-20T02:45:41.615Z,15.63
2022-11-20T02:48:09.957Z,15.07
2022-11-20T02:50:39.937Z,14.88
2022-11-20T02:53:08.540Z,15.40
2022-11-20T02:55:37.167Z,14.77
2022-11-20T02:58:05.527Z,16.40
2022-11-20T03:00:36.377Z,15.80
2022-11-20T03:03:04.686Z,13.52
2022-11-20T03:05:32.974Z,14.27
2022-11-20T03:08:01.239Z,13.75
2022-11-20T03:10:29.497Z,15.07
2022-11-20T03:12:58.151Z,15.32
2022-11-20T03:15:26.523Z,14.73
2022-11-20T03:17:57.446Z,13.50
2022-11-20T03:20:26.026Z,13.13
2022-11-20T03:22:56.000Z,13.90
2022-11-20T03:25:24.857Z,13.13
2022-11-20T03:27:53.379Z,14.32
2022-11-20T03:30:23.984Z,12.68
2022-11-20T03:32:56.968Z,14.27
2022-11-20T03:35:25.534Z,14.15
2022-11-20T03:37:53.808Z,17.92
2022-11-20T03:40:22.098Z,14.50
2022-11-20T03:42:50.386Z,14.20
2022-11-20T03:45:19.564Z,14.55
2022-11-20T03:47:48.433Z,14.60
2022-11-20T03:50:18.216Z,13.63
2022-11-20T03:52:46.512Z,15.63
2022-11-20T03:55:14.777Z,13.05
2022-11-20T03:57:43.047Z,16.98
2022-11-20T04:00:11.937Z,14.52
2022-11-20T04:02:40.171Z,13.88
2022-11-20T04:05:08.915Z,13.02
2022-11-20T04:07:38.674Z,13.40
2022-11-20T04:10:07.456Z,16.20
2022-11-20T04:12:35.792Z,15.23
2022-11-20T04:15:04.003Z,14.98
2022-11-20T04:17:32.248Z,13.38
2022-11-20T04:20:00.491Z,15.60
2022-11-20T04:22:28.972Z,15.48
2022-11-20T04:24:58.596Z,14.00
2022-11-20T04:27:26.820Z,14.63
2022-11-20T04:29:55.032Z,14.38
2022-11-20T04:32:23.246Z,15.65
2022-11-20T04:34:51.541Z,13.88
2022-11-20T04:37:19.755Z,14.38
2022-11-20T04:39:47.956Z,14.55
2022-11-20T04:42:32.662Z,15.55
2022-11-20T04:45:00.891Z,14.70
2022-11-20T04:47:29.193Z,14.70
2022-11-20T04:49:57.582Z,14.88
2022-11-20T04:52:25.932Z,13.65
2022-11-20T04:54:54.770Z,14.25
2022-11-20T04:57:24.360Z,14.35
2022-11-20T04:59:52.615Z,16.38
2022-11-20T05:02:21.219Z,14.52
2022-11-20T05:04:49.719Z,15.38
2022-11-20T05:07:18.094Z,14.90
2022-11-20T05:09:46.434Z,14.05
2022-11-20T05:12:14.683Z,14.98
2022-11-20T05:14:44.296Z,14.30
2022-11-20T05:17:13.087Z,14.85
2022-11-20T05:19:41.345Z,14.50
2022-11-20T05:22:09.669Z,16.02
2022-11-20T05:24:37.892Z,15.10
2022-11-20T05:27:06.157Z,13.93
2022-11-20T05:29:34.442Z,14.55
2022-11-20T05:32:04.028Z,14.68
2022-11-20T05:34:32.309Z,16.08
2022-11-20T05:37:00.575Z,16.67
2022-11-20T05:39:28.845Z,16.20
2022-11-20T05:42:10.964Z,15.32
2022-11-20T05:44:39.228Z,14.60
2022-11-20T05:47:09.130Z,15.90
2022-11-20T05:49:37.428Z,16.33
2022-11-20T05:52:05.898Z,15.07
2022-11-20T05:54:34.422Z,14.23
2022-11-20T05:57:02.661Z,16.02
2022-11-20T05:59:30.898Z,13.57
2022-11-20T06:01:59.220Z,15.30
2022-11-20T06:04:28.921Z,15.00
2022-11-20T06:06:57.284Z,14.32
2022-11-20T06:09:25.620Z,15.70
2022-11-20T06:11:53.930Z,14.80
2022-11-20T06:14:22.155Z,16.20
2022-11-20T06:16:50.539Z,14.93
2022-11-20T06:19:18.978Z,16.35
2022-11-20T06:21:50.307Z,16.67
2022-11-20T06:24:18.610Z,15.85
2022-11-20T06:26:47.199Z,17.23
2022-11-20T06:29:15.508Z,15.68
2022-11-20T06:31:43.795Z,16.10
2022-11-20T06:34:12.051Z,16.33
2022-11-20T06:36:40.328Z,16.80
2022-11-20T06:39:09.989Z,15.73
2022-11-20T06:41:38.219Z,15.10
2022-11-20T06:44:07.076Z,15.93
2022-11-20T06:46:35.437Z,18.00
2022-11-20T06:49:03.756Z,14.88
2022-11-20T06:51:31.978Z,18.17
2022-11-20T06:54:01.871Z,16.50
2022-11-20T06:56:31.534Z,17.38
2022-11-20T06:58:59.812Z,15.95
2022-11-20T07:01:28.116Z,15.98
2022-11-20T07:03:56.407Z,13.80
2022-11-20T07:06:24.752Z,15.45
2022-11-20T07:08:53.549Z,15.10
2022-11-20T07:11:22.604Z,16.48
2022-11-20T07:13:52.353Z,16.33
2022-11-20T07:16:20.636Z,15.60
2022-11-20T07:18:50.701Z,17.85
2022-11-20T07:21:19.420Z,16.65
2022-11-20T07:23:47.743Z,15.52
2022-11-20T07:26:16.081Z,14.63
2022-11-20T07:28:46.703Z,16.75
2022-11-20T07:31:19.362Z,17.30
2022-11-20T07:33:48.289Z,17.40
2022-11-20T07:36:16.613Z,16.92
2022-11-20T07:38:44.867Z,16.98
2022-11-20T07:41:13.109Z,16.13
2022-11-20T07:43:41.849Z,17.60
2022-11-20T07:46:10.266Z,15.68
2022-11-20T07:48:39.956Z,16.90
2022-11-20T07:51:08.297Z,17.73
2022-11-20T07:53:36.548Z,15.75
2022-11-20T07:56:05.124Z,17.67
2022-11-20T07:58:35.455Z,17.60
2022-11-20T08:01:06.774Z,17.23
2022-11-20T08:03:35.248Z,19.47
2022-11-20T08:06:05.003Z,18.70
2022-11-20T08:08:34.057Z,17.92
2022-11-20T08:11:17.201Z,17.02
2022-11-20T08:14:02.849Z,18.38
2022-11-20T08:16:31.204Z,16.58
2022-11-20T08:18:59.520Z,17.80
2022-11-20T08:21:31.735Z,19.40
2022-11-20T08:24:03.539Z,19.58
2022-11-20T08:26:31.859Z,18.65
2022-11-20T08:29:00.623Z,21.23
2022-11-20T08:31:29.630Z,17.02
2022-11-20T08:33:58.074Z,19.77
2022-11-20T08:36:26.850Z,19.92
2022-11-20T08:38:56.998Z,18.15
2022-11-20T08:41:26.427Z,20.63
2022-11-20T08:43:55.322Z,19.98
2022-11-20T08:46:23.594Z,18.85
2022-11-20T08:48:51.916Z,18.75
2022-11-20T08:51:20.644Z,18.88
2022-11-20T08:53:50.472Z,19.13
2022-11-20T08:56:20.151Z,18.95
2022-11-20T08:59:17.952Z,21.08
2022-11-20T09:01:37.055Z,20.13
2022-11-20T09:04:05.793Z,20.33
2022-11-20T09:06:34.011Z,19.45
2022-11-20T09:09:06.660Z,21.10
2022-11-20T09:11:37.281Z,19.95
2022-11-20T09:14:05.645Z,19.50
2022-11-20T09:16:33.995Z,19.83
2022-11-20T09:19:28.666Z,22.10
2022-11-20T09:21:50.566Z,21.05
2022-11-20T09:24:18.946Z,19.92
2022-11-20T09:26:48.863Z,21.80
2022-11-20T09:29:17.072Z,22.02
2022-11-20T09:31:45.372Z,20.83
2022-11-20T09:34:13.670Z,20.70
2022-11-20T09:36:41.945Z,22.48
2022-11-20T09:39:10.219Z,23.27
2022-11-20T09:41:45.956Z,21.13
2022-11-20T09:44:21.716Z,20.55
2022-11-20T09:46:53.852Z,18.98
2022-11-20T09:49:30.857Z,21.02
2022-11-20T09:52:01.284Z,21.05
2022-11-20T09:54:32.466Z,22.85
2022-11-20T09:57:02.305Z,21.15
2022-11-20T09:59:35.775Z,22.30
2022-11-20T10:02:04.784Z,21.30
2022-11-20T10:04:38.216Z,21.02
2022-11-20T10:07:31.881Z,20.65
2022-11-20T10:10:00.954Z,21.08
2022-11-20T10:12:33.272Z,20.95
2022-11-20T10:15:07.950Z,22.90
2022-11-20T10:17:53.303Z,24.67
2022-11-20T10:20:25.937Z,23.70
2022-11-20T10:23:02.620Z,22.10
2022-11-20T10:25:34.066Z,23.55
2022-11-20T10:28:12.526Z,23.60
2022-11-20T10:30:45.039Z,23.40
2022-11-20T10:33:16.659Z,27.20
2022-11-20T10:35:47.702Z,22.80
2022-11-20T10:38:18.726Z,22.02
2022-11-20T10:40:48.761Z,26.77
2022-11-20T10:43:19.227Z,27.08
2022-11-20T10:45:52.144Z,23.77
2022-11-20T10:48:23.619Z,22.23
2022-11-20T10:51:05.617Z,26.67
2022-11-20T10:53:43.876Z,25.15
2022-11-20T10:56:14.590Z,27.13
2022-11-20T10:58:48.418Z,25.85
2022-11-20T11:01:19.142Z,24.17
2022-11-20T11:03:47.614Z,25.77
2022-11-20T11:06:20.495Z,28.00
2022-11-20T11:08:49.594Z,26.97
2022-11-20T11:11:23.512Z,28.80
2022-11-20T11:13:52.013Z,26.48
2022-11-20T11:16:25.386Z,26.33
2022-11-20T11:18:54.032Z,27.15
2022-11-20T11:21:26.459Z,27.55
2022-11-20T11:24:19.731Z,29.30
2022-11-20T11:26:54.722Z,29.60
2022-11-20T11:29:23.123Z,27.25
2022-11-20T11:31:52.899Z,27.35
2022-11-20T11:34:21.168Z,27.83
2022-11-20T11:36:55.164Z,27.55
2022-11-20T11:39:24.043Z,28.67
2022-11-20T11:41:52.783Z,29.58
2022-11-20T11:44:39.845Z,29.38
2022-11-20T11:47:12.676Z,33.85
2022-11-20T11:49:41.327Z,33.95
2022-11-20T11:52:14.999Z,32.10
2022-11-20T11:54:46.501Z,34.58
2022-11-20T11:57:18.729Z,32.33
2022-11-20T11:59:54.045Z,31.75
2022-11-20T12:02:28.467Z,34.72
2022-11-20T12:05:00.530Z,32.67
2022-11-20T12:07:51.348Z,34.40
2022-11-20T12:10:22.853Z,35.43
2022-11-20T12:12:53.711Z,39.60
2022-11-20T12:15:28.212Z,36.55
2022-11-20T12:17:57.878Z,31.35
2022-11-20T12:20:28.774Z,38.00
2022-11-20T12:22:59.059Z,35.65
2022-11-20T12:25:28.656Z,36.75
2022-11-20T12:28:11.751Z,34.37
2022-11-20T12:30:44.388Z,32.95
2022-11-20T12:33:20.223Z,36.70
2022-11-20T12:35:56.686Z,34.15
2022-11-20T12:38:42.827Z,33.88
2022-11-20T12:41:15.388Z,31.95
2022-11-20T12:44:05.041Z,37.80
2022-11-20T12:46:37.643Z,37.05
2022-11-20T12:49:20.863Z,33.85
2022-11-20T12:52:01.480Z,34.65
2022-11-20T12:54:46.484Z,34.45
2022-11-20T12:57:19.390Z,33.03
2022-11-20T12:59:57.771Z,34.30
2022-11-20T13:02:28.808Z,37.58
2022-11-20T13:05:16.086Z,35.47
2022-11-20T13:07:44.933Z,35.70
2022-11-20T13:10:17.641Z,37.93
2022-11-20T13:12:48.792Z,37.92
2022-11-20T13:15:20.948Z,36.05
2022-11-20T13:17:53.127Z,38.45
2022-11-20T13:20:22.770Z,34.42
2022-11-20T13:22:51.971Z,35.92
2022-11-20T13:25:27.113Z,36.47
2022-11-20T13:27:56.011Z,41.67
2022-11-20T13:30:25.464Z,37.17
2022-11-20T13:32:55.147Z,38.28
2022-11-20T13:35:28.991Z,39.92
2022-11-20T13:38:08.498Z,40.33
2022-11-20T13:40:38.360Z,41.15
2022-11-20T13:43:22.522Z,40.83
2022-11-20T13:45:57.968Z,39.90
2022-11-20T13:48:27.777Z,40.78
2022-11-20T13:51:02.629Z,40.60
2022-11-20T13:53:37.977Z,43.65
2022-11-20T13:56:09.464Z,47.73
2022-11-20T13:58:43.236Z,47.72
2022-11-20T14:01:12.873Z,42.95
2022-11-20T14:04:05.005Z,43.70
2022-11-20T14:06:32.404Z,47.97
2022-11-20T14:09:01.228Z,43.93
2022-11-20T14:11:30.501Z,44.13
2022-11-20T14:14:00.374Z,44.65
2022-11-20T14:16:30.116Z,47.33
2022-11-20T14:18:59.233Z,46.17
2022-11-20T14:21:28.527Z,41.55
2022-11-20T14:24:05.741Z,45.72
2022-11-20T14:26:34.484Z,48.93
2022-11-20T14:29:02.985Z,46.50
2022-11-20T14:31:31.409Z,45.22
2022-11-20T14:33:59.767Z,51.87
2022-11-20T14:36:28.521Z,46.00
2022-11-20T14:38:58.156Z,54.53
2022-11-20T14:41:26.797Z,51.83
2022-11-20T14:43:57.176Z,50.50
2022-11-20T14:46:25.839Z,52.88
2022-11-20T14:48:56.285Z,51.67
2022-11-20T14:51:33.007Z,46.10
2022-11-20T14:54:12.184Z,52.55
2022-11-20T14:56:40.503Z,49.10
2022-11-20T14:59:08.928Z,48.57
2022-11-20T15:01:38.421Z,47.50
2022-11-20T15:04:08.857Z,45.42
2022-11-20T15:06:37.627Z,43.95
2022-11-20T15:09:06.340Z,45.67
2022-11-20T15:11:37.219Z,47.78
2022-11-20T15:14:06.794Z,47.83
2022-11-20T15:16:35.451Z,48.47
2022-11-20T15:19:05.447Z,47.42
2022-11-20T15:21:33.670Z,46.55
2022-11-20T15:24:01.985Z,44.53
2022-11-20T15:26:30.687Z,46.88
2022-11-20T15:29:00.399Z,44.10
2022-11-20T15:31:28.670Z,44.83
2022-11-20T15:33:56.884Z,43.92
2022-11-20T15:36:25.179Z,46.90
2022-11-20T15:38:53.449Z,43.60
2022-11-20T15:41:21.777Z,44.05
2022-11-20T15:43:50.876Z,41.85
2022-11-20T15:46:23.671Z,42.42
2022-11-20T15:48:54.033Z,44.65
2022-11-20T15:51:27.216Z,41.05
2022-11-20T15:53:55.557Z,41.63
2022-11-20T15:56:23.843Z,41.00
2022-11-20T15:58:52.151Z,43.20
2022-11-20T16:01:23.511Z,43.08
2022-11-20T16:03:51.922Z,41.83
2022-11-20T16:06:20.292Z,42.50
2022-11-20T16:08:48.579Z,40.78
2022-11-20T16:11:17.762Z,37.15
2022-11-20T16:14:03.606Z,37.17
2022-11-20T16:16:34.043Z,35.45
2022-11-20T16:19:02.304Z,35.67
2022-11-20T16:21:32.426Z,34.70
2022-11-20T16:24:01.004Z,37.35
2022-11-20T16:26:29.499Z,35.10
2022-11-20T16:28:58.138Z,31.77
2022-11-20T16:31:26.684Z,33.05
2022-11-20T16:33:57.047Z,33.50
2022-11-20T16:36:26.080Z,34.53
2022-11-20T16:38:55.155Z,33.90
2022-11-20T16:41:23.405Z,30.67
2022-11-20T16:43:52.778Z,31.67
2022-11-20T16:46:22.054Z,31.75
2022-11-20T16:48:57.139Z,30.10
2022-11-20T16:51:25.747Z,28.77
2022-11-20T16:53:55.796Z,32.63
2022-11-20T16:56:24.944Z,31.20
2022-11-20T16:58:53.698Z,31.02
2022-11-20T17:01:22.595Z,29.90
2022-11-20T17:03:57.525Z,29.67
2022-11-20T17:06:26.639Z,29.30
2022-11-20T17:08:55.753Z,25.85
2022-11-20T17:11:24.033Z,26.77
2022-11-20T17:13:52.441Z,26.83
2022-11-20T17:16:21.517Z,24.95
2022-11-20T17:18:50.283Z,26.98
2022-11-20T17:21:20.264Z,25.58
2022-11-20T17:23:48.832Z,25.30
2022-11-20T17:26:17.875Z,24.90
2022-11-20T17:28:46.765Z,23.63
2022-11-20T17:31:16.061Z,24.17
2022-11-20T17:33:45.222Z,23.33
2022-11-20T17:36:14.399Z,23.98
2022-11-20T17:38:44.638Z,23.93
2022-11-20T17:41:13.677Z,22.20
2022-11-20T17:43:42.845Z,22.70
2022-11-20T17:46:11.865Z,20.95
2022-11-20T17:48:42.308Z,23.65
2022-11-20T17:51:12.138Z,24.83
2022-11-20T17:53:41.207Z,22.70
2022-11-20T17:56:28.419Z,22.60
2022-11-20T17:58:56.740Z,21.42
2022-11-20T18:01:25.451Z,25.10
2022-11-20T18:03:53.791Z,26.52
2022-11-20T18:06:22.843Z,21.83
2022-11-20T18:08:51.427Z,20.98
2022-11-20T18:11:22.535Z,24.90
2022-11-20T18:14:09.729Z,25.30
2022-11-20T18:16:42.881Z,23.27
2022-11-20T18:19:11.801Z,22.60
2022-11-20T18:21:40.058Z,25.02
2022-11-20T18:24:08.694Z,23.85
2022-11-20T18:26:43.914Z,22.38
2022-11-20T18:29:12.902Z,24.80
2022-11-20T18:31:41.403Z,22.50
2022-11-20T18:34:12.927Z,22.20
2022-11-20T18:36:41.611Z,21.08
2022-11-20T18:39:11.411Z,21.05
2022-11-20T18:41:59.329Z,22.63
2022-11-20T18:44:46.173Z,22.77
2022-11-20T18:47:15.823Z,24.33
2022-11-20T18:49:46.132Z,19.40
2022-11-20T18:52:14.687Z,21.80
2022-11-20T18:54:43.005Z,21.02
2022-11-20T18:57:15.019Z,20.98
2022-11-20T18:59:43.821Z,21.67
2022-11-20T19:02:13.129Z,21.37
2022-11-20T19:04:41.502Z,20.90
2022-11-20T19:07:11.950Z,22.38
2022-11-20T19:09:40.742Z,21.00
2022-11-20T19:12:09.669Z,20.05
2022-11-20T19:14:39.435Z,21.02
2022-11-20T19:17:08.335Z,20.60
2022-11-20T19:19:36.755Z,20.60
2022-11-20T19:22:05.361Z,20.30
2022-11-20T19:24:33.884Z,23.60
2022-11-20T19:27:02.270Z,18.33
2022-11-20T19:29:31.128Z,19.58
2022-11-20T19:32:00.813Z,20.75
2022-11-20T19:34:29.084Z,22.03
2022-11-20T19:36:57.331Z,20.00
2022-11-20T19:39:25.843Z,19.88
2022-11-20T19:41:54.234Z,19.20
2022-11-20T19:44:22.493Z,19.83
2022-11-20T19:46:51.316Z,20.07
2022-11-20T19:49:21.312Z,18.37
2022-11-20T19:51:51.060Z,19.20
2022-11-20T19:54:19.439Z,18.45
2022-11-20T19:56:49.417Z,19.00
2022-11-20T19:59:17.757Z,21.20
2022-11-20T20:01:46.126Z,19.30
2022-11-20T20:04:14.445Z,20.00
2022-11-20T20:06:44.621Z,17.35
2022-11-20T20:09:14.059Z,20.33
2022-11-20T20:11:42.770Z,20.65
2022-11-20T20:14:14.709Z,22.90
2022-11-20T20:16:43.089Z,20.55
2022-11-20T20:19:13.935Z,22.05
2022-11-20T20:21:43.880Z,22.45
2022-11-20T20:24:12.766Z,20.85
2022-11-20T20:26:41.030Z,19.70
2022-11-20T20:29:09.374Z,20.98
2022-11-20T20:31:37.599Z,18.90
2022-11-20T20:34:06.071Z,18.95
2022-11-20T20:36:34.681Z,19.15
2022-11-20T20:39:04.404Z,18.13
2022-11-20T20:41:32.759Z,20.35
2022-11-20T20:44:18.650Z,20.25
2022-11-20T20:46:47.015Z,21.00
2022-11-20T20:49:15.257Z,22.77
2022-11-20T20:51:43.544Z,19.92
2022-11-20T20:54:13.160Z,20.92
2022-11-20T20:56:41.492Z,19.58
2022-11-20T20:59:09.843Z,19.48
2022-11-20T21:01:38.405Z,19.17
2022-11-20T21:04:06.843Z,21.48
2022-11-20T21:06:35.072Z,20.02
2022-11-20T21:09:03.344Z,20.27
2022-11-20T21:11:32.928Z,20.95
2022-11-20T21:14:01.189Z,19.25
2022-11-20T21:16:40.751Z,20.73
2022-11-20T21:19:09.070Z,18.27
2022-11-20T21:21:55.076Z,18.92
2022-11-20T21:24:23.732Z,18.83
2022-11-20T21:26:53.655Z,18.38
2022-11-20T21:29:22.323Z,20.60
2022-11-20T21:31:50.636Z,21.03
2022-11-20T21:34:19.079Z,21.35
2022-11-20T21:36:47.400Z,20.60
2022-11-20T21:39:16.281Z,19.30
2022-11-20T21:41:44.872Z,20.52
2022-11-20T21:44:30.473Z,21.17
2022-11-20T21:47:03.868Z,18.42
2022-11-20T21:49:32.084Z,22.80
2022-11-20T21:52:00.328Z,18.08
2022-11-20T21:54:28.587Z,19.98
2022-11-20T21:56:56.983Z,20.85
2022-11-20T21:59:26.783Z,22.10
2022-11-20T22:01:55.153Z,19.13
2022-11-20T22:04:24.587Z,21.00
2022-11-20T22:06:53.118Z,19.10
2022-11-20T22:09:21.382Z,21.58
2022-11-20T22:11:49.647Z,22.15
2022-11-20T22:14:23.817Z,20.63
2022-11-20T22:16:54.827Z,20.48
2022-11-20T22:19:23.841Z,22.67
2022-11-20T22:21:52.211Z,23.05
2022-11-20T22:24:21.627Z,20.55
2022-11-20T22:26:50.365Z,22.77
2022-11-20T22:29:19.741Z,23.30
2022-11-20T22:31:48.193Z,23.52
2022-11-20T22:34:17.788Z,21.37
2022-11-20T22:36:46.108Z,23.92
2022-11-20T22:39:14.343Z,21.15
2022-11-20T22:41:42.636Z,25.33
2022-11-20T22:44:10.971Z,24.58
2022-11-20T22:46:39.470Z,23.15
2022-11-20T22:49:09.466Z,22.98
2022-11-20T22:51:40.062Z,22.42
2022-11-20T22:54:09.807Z,22.40
2022-11-20T22:56:38.018Z,23.27
2022-11-20T22:59:06.276Z,22.23
2022-11-20T23:01:36.576Z,22.58
2022-11-20T23:04:05.648Z,21.98
2022-11-20T23:06:35.091Z,22.77
2022-11-20T23:09:05.244Z,22.33
2022-11-20T23:11:34.032Z,21.83
2022-11-20T23:14:03.241Z,21.75
2022-11-20T23:16:32.351Z,22.00
2022-11-20T23:19:01.405Z,23.42
2022-11-20T23:21:29.798Z,22.00
2022-11-20T23:23:59.158Z,22.35
2022-11-20T23:26:29.589Z,25.88
2022-11-20T23:28:58.504Z,26.73
2022-11-20T23:31:27.395Z,24.92
2022-11-20T23:33:56.079Z,26.70
2022-11-20T23:36:24.493Z,23.00
2022-11-20T23:38:52.856Z,25.77
2022-11-20T23:41:21.092Z,27.93
2022-11-20T23:43:50.681Z,29.00
2022-11-20T23:46:19.122Z,26.93
2022-11-20T23:48:47.591Z,26.50
2022-11-20T23:51:16.695Z,25.90
2022-11-20T23:53:44.985Z,27.35
2022-11-20T23:56:15.141Z,26.38
2022-11-20T23:58:43.823Z,28.48
